sensor_id;sensor_type;location;lat;lon;timestamp;temperature;humidity
9393;DHT22;4736;52.508;13.422;2022-08-05T00:00:51;26.10;1.00
9393;DHT22;4736;52.508;13.422;2022-08-05T00:03:54;26.10;1.00
9393;DHT22;4736;52.508;13.422;2022-08-05T00:06:58;26.00;1.00
9393;DHT22;4736;52.508;13.422;2022-08-05T00:10:21;26.00;1.00
9393;DHT22;4736;52.508;13.422;2022-08-05T00:13:30;25.90;1.00
9393;DHT22;4736;52.508;13.422;2022-08-05T00:16:40;25.90;1.00
9393;DHT22;4736;52.508;13.422;2022-08-05T00:19:54;25.80;1.00
9393;DHT22;4736;52.508;13.422;2022-08-05T00:23:03;25.70;1.00
9393;DHT22;4736;52.508;13.422;2022-08-05T00:26:14;25.70;1.00
9393;DHT22;4736;52.508;13.422;2022-08-05T00:29:19;25.60;1.00
9393;DHT22;4736;52.508;13.422;2022-08-05T00:32:26;25.50;1.00
9393;DHT22;4736;52.508;13.422;2022-08-05T00:35:28;25.50;1.00
9393;DHT22;4736;52.508;13.422;2022-08-05T00:38:34;25.50;1.00
9393;DHT22;4736;52.508;13.422;2022-08-05T00:41:37;25.50;1.00
9393;DHT22;4736;52.508;13.422;2022-08-05T00:44:54;25.40;1.00
9393;DHT22;4736;52.508;13.422;2022-08-05T00:47:57;25.40;1.00
9393;DHT22;4736;52.508;13.422;2022-08-05T00:51:06;25.30;1.00
9393;DHT22;4736;52.508;13.422;2022-08-05T00:54:29;25.30;1.00
9393;DHT22;4736;52.508;13.422;2022-08-05T00:57:32;25.20;1.00
9393;DHT22;4736;52.508;13.422;2022-08-05T01:00:56;25.20;1.00
9393;DHT22;4736;52.508;13.422;2022-08-05T01:03:59;25.10;1.00
9393;DHT22;4736;52.508;13.422;2022-08-05T01:07:02;25.10;1.00
9393;DHT22;4736;52.508;13.422;2022-08-05T01:10:07;25.10;1.00
9393;DHT22;4736;52.508;13.422;2022-08-05T01:13:22;25.00;1.00
9393;DHT22;4736;52.508;13.422;2022-08-05T01:16:50;25.00;1.00
9393;DHT22;4736;52.508;13.422;2022-08-05T01:20:03;25.00;1.00
9393;DHT22;4736;52.508;13.422;2022-08-05T01:23:12;24.90;1.00
9393;DHT22;4736;52.508;13.422;2022-08-05T01:26:34;24.80;1.00
9393;DHT22;4736;52.508;13.422;2022-08-05T01:29:45;24.90;1.00
9393;DHT22;4736;52.508;13.422;2022-08-05T01:32:50;24.90;1.00
9393;DHT22;4736;52.508;13.422;2022-08-05T01:35:58;24.90;1.00
9393;DHT22;4736;52.508;13.422;2022-08-05T01:39:03;24.80;1.00
9393;DHT22;4736;52.508;13.422;2022-08-05T01:42:12;24.80;1.00
9393;DHT22;4736;52.508;13.422;2022-08-05T01:45:19;24.70;1.00
9393;DHT22;4736;52.508;13.422;2022-08-05T01:48:23;24.70;1.00
9393;DHT22;4736;52.508;13.422;2022-08-05T01:51:30;24.70;1.00
9393;DHT22;4736;52.508;13.422;2022-08-05T01:54:36;24.70;1.00
9393;DHT22;4736;52.508;13.422;2022-08-05T01:57:48;24.70;1.00
9393;DHT22;4736;52.508;13.422;2022-08-05T02:01:13;24.70;1.00
9393;DHT22;4736;52.508;13.422;2022-08-05T02:04:29;24.80;1.00
9393;DHT22;4736;52.508;13.422;2022-08-05T02:07:37;24.80;1.00
9393;DHT22;4736;52.508;13.422;2022-08-05T02:10:43;24.70;1.00
9393;DHT22;4736;52.508;13.422;2022-08-05T02:13:59;24.60;1.00
9393;DHT22;4736;52.508;13.422;2022-08-05T02:17:06;24.50;1.00
9393;DHT22;4736;52.508;13.422;2022-08-05T02:20:39;24.50;1.00
9393;DHT22;4736;52.508;13.422;2022-08-05T02:23:51;24.40;1.00
9393;DHT22;4736;52.508;13.422;2022-08-05T02:26:57;24.30;1.00
9393;DHT22;4736;52.508;13.422;2022-08-05T02:30:12;24.30;1.00
9393;DHT22;4736;52.508;13.422;2022-08-05T02:33:17;24.20;1.00
9393;DHT22;4736;52.508;13.422;2022-08-05T02:36:40;24.10;1.00
9393;DHT22;4736;52.508;13.422;2022-08-05T02:39:44;24.00;1.00
9393;DHT22;4736;52.508;13.422;2022-08-05T02:42:53;24.00;1.00
9393;DHT22;4736;52.508;13.422;2022-08-05T02:45:57;23.90;1.00
9393;DHT22;4736;52.508;13.422;2022-08-05T02:49:04;23.90;1.00
9393;DHT22;4736;52.508;13.422;2022-08-05T02:52:14;23.90;1.00
9393;DHT22;4736;52.508;13.422;2022-08-05T02:55:31;23.90;1.00
9393;DHT22;4736;52.508;13.422;2022-08-05T02:58:55;23.90;1.00
9393;DHT22;4736;52.508;13.422;2022-08-05T03:02:01;23.80;1.00
9393;DHT22;4736;52.508;13.422;2022-08-05T03:05:08;23.80;1.00
9393;DHT22;4736;52.508;13.422;2022-08-05T03:08:12;23.70;1.00
9393;DHT22;4736;52.508;13.422;2022-08-05T03:11:18;23.60;1.00
9393;DHT22;4736;52.508;13.422;2022-08-05T03:14:41;23.60;1.00
9393;DHT22;4736;52.508;13.422;2022-08-05T03:17:46;23.70;1.00
9393;DHT22;4736;52.508;13.422;2022-08-05T03:20:56;23.60;1.00
9393;DHT22;4736;52.508;13.422;2022-08-05T03:24:00;23.60;1.00
9393;DHT22;4736;52.508;13.422;2022-08-05T03:27:04;23.60;1.00
9393;DHT22;4736;52.508;13.422;2022-08-05T03:30:08;23.50;1.00
9393;DHT22;4736;52.508;13.422;2022-08-05T03:33:11;23.50;1.00
9393;DHT22;4736;52.508;13.422;2022-08-05T03:36:17;23.60;1.00
9393;DHT22;4736;52.508;13.422;2022-08-05T03:39:31;23.60;1.00
9393;DHT22;4736;52.508;13.422;2022-08-05T03:42:54;23.60;1.00
9393;DHT22;4736;52.508;13.422;2022-08-05T03:45:58;23.60;1.00
9393;DHT22;4736;52.508;13.422;2022-08-05T03:49:02;23.50;1.00
9393;DHT22;4736;52.508;13.422;2022-08-05T03:52:09;23.50;1.00
9393;DHT22;4736;52.508;13.422;2022-08-05T03:55:36;23.50;1.00
9393;DHT22;4736;52.508;13.422;2022-08-05T03:59:04;23.60;1.00
9393;DHT22;4736;52.508;13.422;2022-08-05T04:02:10;23.50;1.00
9393;DHT22;4736;52.508;13.422;2022-08-05T04:05:18;23.50;1.00
9393;DHT22;4736;52.508;13.422;2022-08-05T04:08:26;23.50;1.00
9393;DHT22;4736;52.508;13.422;2022-08-05T04:11:37;23.50;1.00
9393;DHT22;4736;52.508;13.422;2022-08-05T04:14:51;23.40;1.00
9393;DHT22;4736;52.508;13.422;2022-08-05T04:18:00;23.40;1.00
9393;DHT22;4736;52.508;13.422;2022-08-05T04:21:05;23.40;1.00
9393;DHT22;4736;52.508;13.422;2022-08-05T04:24:13;23.40;1.00
9393;DHT22;4736;52.508;13.422;2022-08-05T04:27:22;23.50;1.00
9393;DHT22;4736;52.508;13.422;2022-08-05T04:30:44;23.60;1.00
9393;DHT22;4736;52.508;13.422;2022-08-05T04:33:48;23.60;1.00
9393;DHT22;4736;52.508;13.422;2022-08-05T04:37:11;23.70;1.00
9393;DHT22;4736;52.508;13.422;2022-08-05T04:40:15;23.70;1.00
9393;DHT22;4736;52.508;13.422;2022-08-05T04:43:20;23.70;1.00
9393;DHT22;4736;52.508;13.422;2022-08-05T04:46:26;23.80;1.00
9393;DHT22;4736;52.508;13.422;2022-08-05T04:49:29;23.80;1.00
9393;DHT22;4736;52.508;13.422;2022-08-05T04:52:52;24.00;1.00
9393;DHT22;4736;52.508;13.422;2022-08-05T04:55:58;24.10;1.00
9393;DHT22;4736;52.508;13.422;2022-08-05T04:59:21;24.20;1.00
9393;DHT22;4736;52.508;13.422;2022-08-05T05:02:41;24.30;1.00
9393;DHT22;4736;52.508;13.422;2022-08-05T05:05:44;24.30;1.00
9393;DHT22;4736;52.508;13.422;2022-08-05T05:09:07;24.40;1.00
9393;DHT22;4736;52.508;13.422;2022-08-05T05:12:16;24.60;1.00
9393;DHT22;4736;52.508;13.422;2022-08-05T05:15:20;24.70;1.00
9393;DHT22;4736;52.508;13.422;2022-08-05T05:18:42;24.80;1.00
9393;DHT22;4736;52.508;13.422;2022-08-05T05:22:05;24.80;1.00
9393;DHT22;4736;52.508;13.422;2022-08-05T05:25:25;24.90;1.00
9393;DHT22;4736;52.508;13.422;2022-08-05T05:28:42;24.90;1.00
9393;DHT22;4736;52.508;13.422;2022-08-05T05:31:46;25.00;1.00
9393;DHT22;4736;52.508;13.422;2022-08-05T05:34:51;25.00;1.00
9393;DHT22;4736;52.508;13.422;2022-08-05T05:37:56;25.00;1.00
9393;DHT22;4736;52.508;13.422;2022-08-05T05:41:03;25.00;1.00
9393;DHT22;4736;52.508;13.422;2022-08-05T05:44:09;25.00;1.00
9393;DHT22;4736;52.508;13.422;2022-08-05T05:47:33;25.10;1.00
9393;DHT22;4736;52.508;13.422;2022-08-05T05:50:56;25.10;1.00
9393;DHT22;4736;52.508;13.422;2022-08-05T05:54:15;25.10;1.00
9393;DHT22;4736;52.508;13.422;2022-08-05T05:57:20;25.20;1.00
9393;DHT22;4736;52.508;13.422;2022-08-05T06:00:25;25.20;1.00
9393;DHT22;4736;52.508;13.422;2022-08-05T06:03:35;25.20;1.00
9393;DHT22;4736;52.508;13.422;2022-08-05T06:06:58;25.10;1.00
9393;DHT22;4736;52.508;13.422;2022-08-05T06:10:02;25.10;1.00
9393;DHT22;4736;52.508;13.422;2022-08-05T06:13:10;25.10;1.00
9393;DHT22;4736;52.508;13.422;2022-08-05T06:16:15;25.10;1.00
9393;DHT22;4736;52.508;13.422;2022-08-05T06:19:31;25.30;1.00
9393;DHT22;4736;52.508;13.422;2022-08-05T06:22:36;25.40;1.00
9393;DHT22;4736;52.508;13.422;2022-08-05T06:25:42;25.50;1.00
9393;DHT22;4736;52.508;13.422;2022-08-05T06:29:05;25.50;1.00
9393;DHT22;4736;52.508;13.422;2022-08-05T06:32:28;25.50;1.00
9393;DHT22;4736;52.508;13.422;2022-08-05T06:35:31;25.50;1.00
9393;DHT22;4736;52.508;13.422;2022-08-05T06:38:54;25.50;1.00
9393;DHT22;4736;52.508;13.422;2022-08-05T06:41:58;25.40;1.00
9393;DHT22;4736;52.508;13.422;2022-08-05T06:45:05;25.50;1.00
9393;DHT22;4736;52.508;13.422;2022-08-05T06:48:10;25.90;1.00
9393;DHT22;4736;52.508;13.422;2022-08-05T06:51:33;26.40;1.00
9393;DHT22;4736;52.508;13.422;2022-08-05T06:54:41;26.80;1.00
9393;DHT22;4736;52.508;13.422;2022-08-05T06:57:52;27.20;1.00
9393;DHT22;4736;52.508;13.422;2022-08-05T07:01:05;27.10;1.00
9393;DHT22;4736;52.508;13.422;2022-08-05T07:04:09;26.80;1.00
9393;DHT22;4736;52.508;13.422;2022-08-05T07:07:14;26.60;1.00
9393;DHT22;4736;52.508;13.422;2022-08-05T07:10:39;26.60;1.00
9393;DHT22;4736;52.508;13.422;2022-08-05T07:13:54;26.50;1.00
9393;DHT22;4736;52.508;13.422;2022-08-05T07:17:21;26.60;1.00
9393;DHT22;4736;52.508;13.422;2022-08-05T07:20:45;26.70;1.00
9393;DHT22;4736;52.508;13.422;2022-08-05T07:23:48;26.90;1.00
9393;DHT22;4736;52.508;13.422;2022-08-05T07:26:53;27.10;1.00
9393;DHT22;4736;52.508;13.422;2022-08-05T07:29:56;27.20;1.00
9393;DHT22;4736;52.508;13.422;2022-08-05T07:33:19;27.30;1.00
9393;DHT22;4736;52.508;13.422;2022-08-05T07:36:39;27.40;1.00
9393;DHT22;4736;52.508;13.422;2022-08-05T07:39:42;27.40;1.00
9393;DHT22;4736;52.508;13.422;2022-08-05T07:43:05;27.40;1.00
9393;DHT22;4736;52.508;13.422;2022-08-05T07:46:21;27.40;1.00
9393;DHT22;4736;52.508;13.422;2022-08-05T07:49:26;27.40;1.00
9393;DHT22;4736;52.508;13.422;2022-08-05T07:52:30;27.20;1.00
9393;DHT22;4736;52.508;13.422;2022-08-05T07:55:33;27.10;1.00
9393;DHT22;4736;52.508;13.422;2022-08-05T07:58:56;26.90;1.00
9393;DHT22;4736;52.508;13.422;2022-08-05T08:02:00;26.70;1.00
9393;DHT22;4736;52.508;13.422;2022-08-05T08:05:04;26.60;1.00
9393;DHT22;4736;52.508;13.422;2022-08-05T08:08:08;26.50;1.00
9393;DHT22;4736;52.508;13.422;2022-08-05T08:11:13;26.30;1.00
9393;DHT22;4736;52.508;13.422;2022-08-05T08:14:16;26.20;1.00
9393;DHT22;4736;52.508;13.422;2022-08-05T08:17:19;26.10;1.00
9393;DHT22;4736;52.508;13.422;2022-08-05T08:20:24;26.10;1.00
9393;DHT22;4736;52.508;13.422;2022-08-05T08:23:49;26.00;1.00
9393;DHT22;4736;52.508;13.422;2022-08-05T08:27:06;25.90;1.00
9393;DHT22;4736;52.508;13.422;2022-08-05T08:30:10;26.00;1.00
9393;DHT22;4736;52.508;13.422;2022-08-05T08:33:33;26.10;1.00
9393;DHT22;4736;52.508;13.422;2022-08-05T08:36:38;26.30;1.00
9393;DHT22;4736;52.508;13.422;2022-08-05T08:39:57;26.20;1.00
9393;DHT22;4736;52.508;13.422;2022-08-05T08:43:05;26.30;1.00
9393;DHT22;4736;52.508;13.422;2022-08-05T08:46:30;26.20;1.00
9393;DHT22;4736;52.508;13.422;2022-08-05T08:49:34;26.20;1.00
9393;DHT22;4736;52.508;13.422;2022-08-05T08:53:01;26.00;1.00
9393;DHT22;4736;52.508;13.422;2022-08-05T08:56:14;25.90;1.00
9393;DHT22;4736;52.508;13.422;2022-08-05T08:59:19;25.80;1.00
9393;DHT22;4736;52.508;13.422;2022-08-05T09:02:28;25.70;1.00
9393;DHT22;4736;52.508;13.422;2022-08-05T09:05:31;25.70;1.00
9393;DHT22;4736;52.508;13.422;2022-08-05T09:08:54;25.70;1.00
9393;DHT22;4736;52.508;13.422;2022-08-05T09:11:59;25.50;1.00
9393;DHT22;4736;52.508;13.422;2022-08-05T09:15:20;25.40;1.00
9393;DHT22;4736;52.508;13.422;2022-08-05T09:18:25;25.40;1.00
9393;DHT22;4736;52.508;13.422;2022-08-05T09:21:30;25.40;1.00
9393;DHT22;4736;52.508;13.422;2022-08-05T09:24:57;25.40;1.00
9393;DHT22;4736;52.508;13.422;2022-08-05T09:28:13;25.30;1.00
9393;DHT22;4736;52.508;13.422;2022-08-05T09:31:21;25.30;1.00
9393;DHT22;4736;52.508;13.422;2022-08-05T09:34:49;25.50;1.00
9393;DHT22;4736;52.508;13.422;2022-08-05T09:37:54;25.60;1.00
9393;DHT22;4736;52.508;13.422;2022-08-05T09:41:17;25.90;1.00
9393;DHT22;4736;52.508;13.422;2022-08-05T09:44:34;26.00;1.00
9393;DHT22;4736;52.508;13.422;2022-08-05T09:47:39;26.20;1.00
9393;DHT22;4736;52.508;13.422;2022-08-05T09:50:58;26.40;1.00
9393;DHT22;4736;52.508;13.422;2022-08-05T09:54:02;26.40;1.00
9393;DHT22;4736;52.508;13.422;2022-08-05T09:57:07;26.30;1.00
9393;DHT22;4736;52.508;13.422;2022-08-05T10:00:25;26.10;1.00
9393;DHT22;4736;52.508;13.422;2022-08-05T10:03:31;26.00;1.00
9393;DHT22;4736;52.508;13.422;2022-08-05T10:06:55;25.90;1.00
9393;DHT22;4736;52.508;13.422;2022-08-05T10:10:00;25.80;1.00
9393;DHT22;4736;52.508;13.422;2022-08-05T10:13:25;25.60;1.00
9393;DHT22;4736;52.508;13.422;2022-08-05T10:16:50;25.50;1.00
9393;DHT22;4736;52.508;13.422;2022-08-05T10:19:54;25.40;1.00
9393;DHT22;4736;52.508;13.422;2022-08-05T10:23:12;25.40;1.00
9393;DHT22;4736;52.508;13.422;2022-08-05T10:26:35;25.40;1.00
9393;DHT22;4736;52.508;13.422;2022-08-05T10:29:51;25.40;1.00
9393;DHT22;4736;52.508;13.422;2022-08-05T10:33:16;25.50;1.00
9393;DHT22;4736;52.508;13.422;2022-08-05T10:36:19;25.50;1.00
9393;DHT22;4736;52.508;13.422;2022-08-05T10:39:30;25.50;1.00
9393;DHT22;4736;52.508;13.422;2022-08-05T10:42:57;25.40;1.00
9393;DHT22;4736;52.508;13.422;2022-08-05T10:46:03;25.10;1.00
9393;DHT22;4736;52.508;13.422;2022-08-05T10:49:09;25.00;1.00
9393;DHT22;4736;52.508;13.422;2022-08-05T10:52:37;24.90;1.00
9393;DHT22;4736;52.508;13.422;2022-08-05T10:56:01;24.90;1.00
9393;DHT22;4736;52.508;13.422;2022-08-05T10:59:27;24.90;1.00
9393;DHT22;4736;52.508;13.422;2022-08-05T11:03:10;24.90;1.00
9393;DHT22;4736;52.508;13.422;2022-08-05T11:06:28;24.90;1.00
9393;DHT22;4736;52.508;13.422;2022-08-05T11:09:42;24.90;1.00
9393;DHT22;4736;52.508;13.422;2022-08-05T11:12:47;25.00;1.00
9393;DHT22;4736;52.508;13.422;2022-08-05T11:16:21;25.10;1.00
9393;DHT22;4736;52.508;13.422;2022-08-05T11:19:44;25.20;1.00
9393;DHT22;4736;52.508;13.422;2022-08-05T11:27:29;25.70;1.00
9393;DHT22;4736;52.508;13.422;2022-08-05T11:31:21;26.10;1.00
9393;DHT22;4736;52.508;13.422;2022-08-05T11:34:48;26.30;1.00
9393;DHT22;4736;52.508;13.422;2022-08-05T11:38:02;26.40;1.00
9393;DHT22;4736;52.508;13.422;2022-08-05T11:41:26;26.50;1.00
9393;DHT22;4736;52.508;13.422;2022-08-05T11:44:51;26.70;1.00
9393;DHT22;4736;52.508;13.422;2022-08-05T11:48:07;26.90;1.00
9393;DHT22;4736;52.508;13.422;2022-08-05T11:51:13;27.10;1.00
9393;DHT22;4736;52.508;13.422;2022-08-05T11:54:36;27.30;1.00
9393;DHT22;4736;52.508;13.422;2022-08-05T11:57:44;27.40;1.00
9393;DHT22;4736;52.508;13.422;2022-08-05T12:01:10;27.60;1.00
9393;DHT22;4736;52.508;13.422;2022-08-05T12:04:19;27.60;1.00
9393;DHT22;4736;52.508;13.422;2022-08-05T12:07:33;27.80;1.00
9393;DHT22;4736;52.508;13.422;2022-08-05T12:10:58;27.90;1.00
9393;DHT22;4736;52.508;13.422;2022-08-05T12:14:07;27.70;1.00
9393;DHT22;4736;52.508;13.422;2022-08-05T12:17:13;27.80;1.00
9393;DHT22;4736;52.508;13.422;2022-08-05T12:20:36;27.60;1.00
9393;DHT22;4736;52.508;13.422;2022-08-05T12:23:50;27.60;1.00
9393;DHT22;4736;52.508;13.422;2022-08-05T12:26:54;27.70;1.00
9393;DHT22;4736;52.508;13.422;2022-08-05T12:29:58;27.90;1.00
9393;DHT22;4736;52.508;13.422;2022-08-05T12:33:05;28.00;1.00
9393;DHT22;4736;52.508;13.422;2022-08-05T12:36:28;28.20;1.00
9393;DHT22;4736;52.508;13.422;2022-08-05T12:39:32;28.50;1.00
9393;DHT22;4736;52.508;13.422;2022-08-05T12:42:39;28.60;1.00
9393;DHT22;4736;52.508;13.422;2022-08-05T12:45:52;28.90;1.00
9393;DHT22;4736;52.508;13.422;2022-08-05T12:49:01;29.00;1.00
9393;DHT22;4736;52.508;13.422;2022-08-05T12:52:16;29.00;1.00
9393;DHT22;4736;52.508;13.422;2022-08-05T12:55:29;29.10;1.00
9393;DHT22;4736;52.508;13.422;2022-08-05T12:58:35;29.20;1.00
9393;DHT22;4736;52.508;13.422;2022-08-05T13:01:58;29.40;1.00
9393;DHT22;4736;52.508;13.422;2022-08-05T13:05:10;29.40;1.00
9393;DHT22;4736;52.508;13.422;2022-08-05T13:08:17;29.30;1.00
9393;DHT22;4736;52.508;13.422;2022-08-05T13:11:21;29.20;1.00
9393;DHT22;4736;52.508;13.422;2022-08-05T13:14:46;29.10;1.00
9393;DHT22;4736;52.508;13.422;2022-08-05T13:18:08;29.10;1.00
9393;DHT22;4736;52.508;13.422;2022-08-05T13:21:12;28.90;1.00
9393;DHT22;4736;52.508;13.422;2022-08-05T13:24:15;28.80;1.00
9393;DHT22;4736;52.508;13.422;2022-08-05T13:27:40;28.70;1.00
9393;DHT22;4736;52.508;13.422;2022-08-05T13:30:43;28.60;1.00
9393;DHT22;4736;52.508;13.422;2022-08-05T13:33:49;28.70;1.00
9393;DHT22;4736;52.508;13.422;2022-08-05T13:37:13;28.80;1.00
9393;DHT22;4736;52.508;13.422;2022-08-05T13:40:27;29.00;1.00
9393;DHT22;4736;52.508;13.422;2022-08-05T13:43:50;29.30;1.00
9393;DHT22;4736;52.508;13.422;2022-08-05T13:46:55;29.40;1.00
9393;DHT22;4736;52.508;13.422;2022-08-05T13:50:09;29.50;1.00
9393;DHT22;4736;52.508;13.422;2022-08-05T13:53:18;29.60;1.00
9393;DHT22;4736;52.508;13.422;2022-08-05T13:56:21;29.40;1.00
9393;DHT22;4736;52.508;13.422;2022-08-05T13:59:24;29.30;1.00
9393;DHT22;4736;52.508;13.422;2022-08-05T14:02:31;29.10;1.00
9393;DHT22;4736;52.508;13.422;2022-08-05T14:05:34;29.00;1.00
9393;DHT22;4736;52.508;13.422;2022-08-05T14:08:58;28.90;1.00
9393;DHT22;4736;52.508;13.422;2022-08-05T14:12:02;28.80;1.00
9393;DHT22;4736;52.508;13.422;2022-08-05T14:15:26;28.80;1.00
9393;DHT22;4736;52.508;13.422;2022-08-05T14:18:49;28.80;1.00
9393;DHT22;4736;52.508;13.422;2022-08-05T14:21:52;28.90;1.00
9393;DHT22;4736;52.508;13.422;2022-08-05T14:25:13;29.00;1.00
9393;DHT22;4736;52.508;13.422;2022-08-05T14:28:22;29.10;1.00
9393;DHT22;4736;52.508;13.422;2022-08-05T14:31:27;29.20;1.00
9393;DHT22;4736;52.508;13.422;2022-08-05T14:34:50;29.30;1.00
9393;DHT22;4736;52.508;13.422;2022-08-05T14:37:55;29.40;1.00
9393;DHT22;4736;52.508;13.422;2022-08-05T14:41:04;29.30;1.00
9393;DHT22;4736;52.508;13.422;2022-08-05T14:44:08;29.20;1.00
9393;DHT22;4736;52.508;13.422;2022-08-05T14:47:22;28.90;1.00
9393;DHT22;4736;52.508;13.422;2022-08-05T14:50:45;28.70;1.00
9393;DHT22;4736;52.508;13.422;2022-08-05T14:53:50;28.50;1.00
9393;DHT22;4736;52.508;13.422;2022-08-05T14:57:14;28.50;1.00
9393;DHT22;4736;52.508;13.422;2022-08-05T15:00:17;28.40;1.00
9393;DHT22;4736;52.508;13.422;2022-08-05T15:03:29;28.30;1.00
9393;DHT22;4736;52.508;13.422;2022-08-05T15:06:35;28.00;1.00
9393;DHT22;4736;52.508;13.422;2022-08-05T15:09:38;27.80;1.00
9393;DHT22;4736;52.508;13.422;2022-08-05T15:12:56;27.70;1.00
9393;DHT22;4736;52.508;13.422;2022-08-05T15:16:05;27.60;1.00
9393;DHT22;4736;52.508;13.422;2022-08-05T15:19:13;27.50;1.00
9393;DHT22;4736;52.508;13.422;2022-08-05T15:22:24;27.50;1.00
9393;DHT22;4736;52.508;13.422;2022-08-05T15:25:29;27.30;1.00
9393;DHT22;4736;52.508;13.422;2022-08-05T15:28:53;27.00;1.00
9393;DHT22;4736;52.508;13.422;2022-08-05T15:31:56;26.80;1.00
9393;DHT22;4736;52.508;13.422;2022-08-05T15:35:07;26.70;1.00
9393;DHT22;4736;52.508;13.422;2022-08-05T15:38:13;26.60;1.00
9393;DHT22;4736;52.508;13.422;2022-08-05T15:41:36;26.40;1.00
9393;DHT22;4736;52.508;13.422;2022-08-05T15:45:00;26.30;1.00
9393;DHT22;4736;52.508;13.422;2022-08-05T15:48:06;26.20;1.00
9393;DHT22;4736;52.508;13.422;2022-08-05T15:51:15;26.10;1.00
9393;DHT22;4736;52.508;13.422;2022-08-05T15:54:42;26.10;1.00
9393;DHT22;4736;52.508;13.422;2022-08-05T15:57:46;26.00;1.00
9393;DHT22;4736;52.508;13.422;2022-08-05T16:00:51;26.00;1.00
9393;DHT22;4736;52.508;13.422;2022-08-05T16:04:14;25.90;1.00
9393;DHT22;4736;52.508;13.422;2022-08-05T16:07:18;25.80;1.00
9393;DHT22;4736;52.508;13.422;2022-08-05T16:10:23;25.90;1.00
9393;DHT22;4736;52.508;13.422;2022-08-05T16:13:28;25.90;1.00
9393;DHT22;4736;52.508;13.422;2022-08-05T16:16:37;25.70;1.00
9393;DHT22;4736;52.508;13.422;2022-08-05T16:19:39;25.70;1.00
9393;DHT22;4736;52.508;13.422;2022-08-05T16:23:04;25.60;1.00
9393;DHT22;4736;52.508;13.422;2022-08-05T16:26:10;25.50;1.00
9393;DHT22;4736;52.508;13.422;2022-08-05T16:29:13;25.50;1.00
9393;DHT22;4736;52.508;13.422;2022-08-05T16:32:22;25.50;1.00
9393;DHT22;4736;52.508;13.422;2022-08-05T16:35:30;25.50;1.00
9393;DHT22;4736;52.508;13.422;2022-08-05T16:38:43;25.40;1.00
9393;DHT22;4736;52.508;13.422;2022-08-05T16:41:55;25.40;1.00
9393;DHT22;4736;52.508;13.422;2022-08-05T16:45:17;25.30;1.00
9393;DHT22;4736;52.508;13.422;2022-08-05T16:48:41;25.00;1.00
9393;DHT22;4736;52.508;13.422;2022-08-05T16:51:45;24.80;1.00
9393;DHT22;4736;52.508;13.422;2022-08-05T16:54:55;24.60;1.00
9393;DHT22;4736;52.508;13.422;2022-08-05T16:57:59;24.50;1.00
9393;DHT22;4736;52.508;13.422;2022-08-05T17:01:09;24.20;1.00
9393;DHT22;4736;52.508;13.422;2022-08-05T17:04:14;24.10;1.00
9393;DHT22;4736;52.508;13.422;2022-08-05T17:07:19;23.90;1.00
9393;DHT22;4736;52.508;13.422;2022-08-05T17:10:42;24.00;1.00
9393;DHT22;4736;52.508;13.422;2022-08-05T17:13:45;24.00;1.00
9393;DHT22;4736;52.508;13.422;2022-08-05T17:16:48;24.00;1.00
9393;DHT22;4736;52.508;13.422;2022-08-05T17:19:55;24.00;1.00
9393;DHT22;4736;52.508;13.422;2022-08-05T17:22:58;23.80;1.00
9393;DHT22;4736;52.508;13.422;2022-08-05T17:26:03;23.60;1.00
9393;DHT22;4736;52.508;13.422;2022-08-05T17:29:06;23.40;1.00
9393;DHT22;4736;52.508;13.422;2022-08-05T17:32:11;23.20;1.00
9393;DHT22;4736;52.508;13.422;2022-08-05T17:35:19;22.90;1.00
9393;DHT22;4736;52.508;13.422;2022-08-05T17:38:22;22.70;1.00
9393;DHT22;4736;52.508;13.422;2022-08-05T17:41:27;22.50;1.00
9393;DHT22;4736;52.508;13.422;2022-08-05T17:44:50;22.30;1.00
9393;DHT22;4736;52.508;13.422;2022-08-05T17:47:53;22.20;1.00
9393;DHT22;4736;52.508;13.422;2022-08-05T17:50:58;22.10;1.00
9393;DHT22;4736;52.508;13.422;2022-08-05T17:54:01;22.00;1.00
9393;DHT22;4736;52.508;13.422;2022-08-05T17:57:05;21.90;1.00
9393;DHT22;4736;52.508;13.422;2022-08-05T18:00:13;21.70;1.00
9393;DHT22;4736;52.508;13.422;2022-08-05T18:03:17;21.40;1.00
9393;DHT22;4736;52.508;13.422;2022-08-05T18:06:41;21.20;1.00
9393;DHT22;4736;52.508;13.422;2022-08-05T18:09:46;21.10;1.00
9393;DHT22;4736;52.508;13.422;2022-08-05T18:13:01;21.00;1.00
9393;DHT22;4736;52.508;13.422;2022-08-05T18:16:13;21.00;1.00
9393;DHT22;4736;52.508;13.422;2022-08-05T18:19:21;20.90;1.00
9393;DHT22;4736;52.508;13.422;2022-08-05T18:22:28;20.70;1.00
9393;DHT22;4736;52.508;13.422;2022-08-05T18:25:52;20.70;1.00
9393;DHT22;4736;52.508;13.422;2022-08-05T18:28:59;20.60;1.00
9393;DHT22;4736;52.508;13.422;2022-08-05T18:32:03;20.60;1.00
9393;DHT22;4736;52.508;13.422;2022-08-05T18:35:06;20.60;1.00
9393;DHT22;4736;52.508;13.422;2022-08-05T18:38:13;20.70;1.00
9393;DHT22;4736;52.508;13.422;2022-08-05T18:41:20;20.50;1.00
9393;DHT22;4736;52.508;13.422;2022-08-05T18:44:43;20.50;1.00
9393;DHT22;4736;52.508;13.422;2022-08-05T18:47:56;20.30;1.00
9393;DHT22;4736;52.508;13.422;2022-08-05T18:51:00;20.30;1.00
9393;DHT22;4736;52.508;13.422;2022-08-05T18:54:41;20.40;1.00
9393;DHT22;4736;52.508;13.422;2022-08-05T18:57:46;20.30;1.00
9393;DHT22;4736;52.508;13.422;2022-08-05T19:00:54;20.20;1.00
9393;DHT22;4736;52.508;13.422;2022-08-05T19:03:58;20.20;1.00
9393;DHT22;4736;52.508;13.422;2022-08-05T19:07:00;20.10;1.00
9393;DHT22;4736;52.508;13.422;2022-08-05T19:10:07;20.00;1.00
9393;DHT22;4736;52.508;13.422;2022-08-05T19:13:12;20.00;1.00
9393;DHT22;4736;52.508;13.422;2022-08-05T19:16:16;19.90;1.00
9393;DHT22;4736;52.508;13.422;2022-08-05T19:19:29;19.90;1.00
9393;DHT22;4736;52.508;13.422;2022-08-05T19:22:34;19.90;1.00
9393;DHT22;4736;52.508;13.422;2022-08-05T19:25:41;19.90;1.00
9393;DHT22;4736;52.508;13.422;2022-08-05T19:28:45;19.80;1.00
9393;DHT22;4736;52.508;13.422;2022-08-05T19:31:48;19.70;1.00
9393;DHT22;4736;52.508;13.422;2022-08-05T19:34:52;19.70;1.00
9393;DHT22;4736;52.508;13.422;2022-08-05T19:37:56;19.60;1.00
9393;DHT22;4736;52.508;13.422;2022-08-05T19:41:11;19.50;1.00
9393;DHT22;4736;52.508;13.422;2022-08-05T19:44:14;19.40;1.00
9393;DHT22;4736;52.508;13.422;2022-08-05T19:47:19;19.50;1.00
9393;DHT22;4736;52.508;13.422;2022-08-05T19:50:24;19.40;1.00
9393;DHT22;4736;52.508;13.422;2022-08-05T19:53:27;19.30;1.00
9393;DHT22;4736;52.508;13.422;2022-08-05T19:56:51;19.30;1.00
9393;DHT22;4736;52.508;13.422;2022-08-05T19:59:54;19.20;1.00
9393;DHT22;4736;52.508;13.422;2022-08-05T20:03:05;19.20;1.00
9393;DHT22;4736;52.508;13.422;2022-08-05T20:06:10;19.20;1.00
9393;DHT22;4736;52.508;13.422;2022-08-05T20:09:29;19.20;1.00
9393;DHT22;4736;52.508;13.422;2022-08-05T20:12:53;19.20;1.00
9393;DHT22;4736;52.508;13.422;2022-08-05T20:15:56;19.20;1.00
9393;DHT22;4736;52.508;13.422;2022-08-05T20:19:00;19.10;1.00
9393;DHT22;4736;52.508;13.422;2022-08-05T20:22:04;19.00;1.00
9393;DHT22;4736;52.508;13.422;2022-08-05T20:25:10;19.00;1.00
9393;DHT22;4736;52.508;13.422;2022-08-05T20:28:14;18.90;1.00
9393;DHT22;4736;52.508;13.422;2022-08-05T20:31:18;18.90;1.00
9393;DHT22;4736;52.508;13.422;2022-08-05T20:34:23;18.90;1.00
9393;DHT22;4736;52.508;13.422;2022-08-05T20:37:26;18.90;1.00
9393;DHT22;4736;52.508;13.422;2022-08-05T20:40:49;18.80;1.00
9393;DHT22;4736;52.508;13.422;2022-08-05T20:43:57;18.90;1.00
9393;DHT22;4736;52.508;13.422;2022-08-05T20:47:18;18.90;1.00
9393;DHT22;4736;52.508;13.422;2022-08-05T20:50:32;18.90;1.00
9393;DHT22;4736;52.508;13.422;2022-08-05T20:53:40;18.90;1.00